createdAt,value
2023-03-23T00:03:23.612Z,22.09
2023-03-23T00:07:23.740Z,22.04
2023-03-23T00:11:23.935Z,22.02
2023-03-23T00:15:24.132Z,21.99
2023-03-23T00:19:26.148Z,21.98
2023-03-23T00:23:24.275Z,21.97
2023-03-23T00:27:24.270Z,21.96
2023-03-23T00:31:24.219Z,21.95
2023-03-23T00:35:24.191Z,21.89
2023-03-23T00:39:24.127Z,21.91
2023-03-23T00:43:24.096Z,21.89
2023-03-23T00:47:24.053Z,21.88
2023-03-23T00:51:24.028Z,21.89
2023-03-23T00:55:24.180Z,21.88
2023-03-23T00:59:24.136Z,21.87
2023-03-23T01:03:24.114Z,21.88
2023-03-23T01:07:24.083Z,21.87
2023-03-23T01:11:24.046Z,21.85
2023-03-23T01:15:23.997Z,21.83
2023-03-23T01:19:23.944Z,21.83
2023-03-23T01:23:23.922Z,21.82
2023-03-23T01:27:23.965Z,21.81
2023-03-23T01:31:23.831Z,21.81
2023-03-23T01:35:23.967Z,21.79
2023-03-23T01:39:23.919Z,21.79
2023-03-23T01:43:23.902Z,21.76
2023-03-23T01:47:23.835Z,21.76
2023-03-23T01:51:30.686Z,21.74
2023-03-23T01:55:24.792Z,21.74
2023-03-23T01:59:23.771Z,21.72
2023-03-23T02:03:23.892Z,21.65
2023-03-23T02:07:23.966Z,21.65
2023-03-23T02:11:23.980Z,21.64
2023-03-23T02:15:24.033Z,21.58
2023-03-23T02:19:23.981Z,21.55
2023-03-23T02:23:23.957Z,21.57
2023-03-23T02:27:23.933Z,21.56
2023-03-23T02:31:23.938Z,21.55
2023-03-23T02:35:23.928Z,21.57
2023-03-23T02:39:23.896Z,21.56
2023-03-23T02:43:23.922Z,21.54
2023-03-23T02:47:25.039Z,21.52
2023-03-23T02:51:23.811Z,21.52
2023-03-23T02:55:23.788Z,21.48
2023-03-23T02:59:23.730Z,21.49
2023-03-23T03:03:23.701Z,21.47
2023-03-23T03:07:23.671Z,21.47
2023-03-23T03:11:23.634Z,21.47
2023-03-23T03:15:23.565Z,21.48
2023-03-23T03:19:23.573Z,21.47
2023-03-23T03:23:23.520Z,21.46
2023-03-23T03:27:23.493Z,21.44
2023-03-23T03:31:23.443Z,21.43
2023-03-23T03:35:23.444Z,21.42
2023-03-23T03:39:23.371Z,21.41
2023-03-23T03:43:23.333Z,21.40
2023-03-23T03:47:23.386Z,21.37
2023-03-23T03:51:23.346Z,21.35
2023-03-23T03:55:23.427Z,21.34
2023-03-23T03:59:23.414Z,21.33
2023-03-23T04:03:23.477Z,21.32
2023-03-23T04:07:23.925Z,21.32
2023-03-23T04:11:33.104Z,21.31
2023-03-23T04:15:24.496Z,21.27
2023-03-23T04:19:23.437Z,21.27
2023-03-23T04:23:23.447Z,21.26
2023-03-23T04:27:23.366Z,21.22
2023-03-23T04:31:23.357Z,21.21
2023-03-23T04:35:23.379Z,21.16
2023-03-23T04:39:23.467Z,21.09
2023-03-23T04:43:23.630Z,21.03
2023-03-23T04:47:23.726Z,21.04
2023-03-23T04:51:23.873Z,21.05
2023-03-23T04:55:24.024Z,21.03
2023-03-23T04:59:24.179Z,20.99
2023-03-23T05:03:24.287Z,20.93
2023-03-23T05:07:24.453Z,20.91
2023-03-23T05:11:24.649Z,20.87
2023-03-23T05:15:24.831Z,20.88
2023-03-23T05:19:25.013Z,20.91
2023-03-23T05:23:25.144Z,20.90
2023-03-23T05:27:25.329Z,20.87
2023-03-23T05:31:25.482Z,20.87
2023-03-23T05:35:25.682Z,20.87
2023-03-23T05:39:25.847Z,20.83
2023-03-23T05:43:26.037Z,20.77
2023-03-23T05:47:26.252Z,20.75
2023-03-23T05:51:26.482Z,20.75
2023-03-23T05:55:26.694Z,20.75
2023-03-23T05:59:26.616Z,20.73
2023-03-23T06:03:26.600Z,20.70
2023-03-23T06:07:26.583Z,20.72
2023-03-23T06:11:26.548Z,20.79
2023-03-23T06:15:26.482Z,20.83
2023-03-23T06:19:26.476Z,20.82
2023-03-23T06:23:26.423Z,20.81
2023-03-23T06:27:26.403Z,20.79
2023-03-23T06:31:26.327Z,20.83
2023-03-23T06:35:26.328Z,20.85
2023-03-23T06:39:26.446Z,20.99
2023-03-23T06:43:26.357Z,21.34
2023-03-23T06:47:26.531Z,21.68
2023-03-23T06:51:26.581Z,21.93
2023-03-23T06:55:26.944Z,22.15
2023-03-23T06:59:27.453Z,22.23
2023-03-23T07:03:27.138Z,22.23
2023-03-23T07:07:27.329Z,22.50
2023-03-23T07:11:27.355Z,22.79
2023-03-23T07:15:27.494Z,22.99
2023-03-23T07:19:27.367Z,23.16
2023-03-23T07:23:27.339Z,23.31
2023-03-23T07:27:27.303Z,23.42
2023-03-23T07:31:27.253Z,23.52
2023-03-23T07:35:27.498Z,23.61
2023-03-23T07:39:27.205Z,23.71
2023-03-23T07:43:27.474Z,23.80
2023-03-23T07:47:34.278Z,23.89
2023-03-23T07:51:28.535Z,23.96
2023-03-23T07:55:27.227Z,23.96
2023-03-23T07:59:27.250Z,23.89
2023-03-23T08:03:27.456Z,23.83
2023-03-23T08:07:27.289Z,23.80
2023-03-23T08:11:27.492Z,23.79
2023-03-23T08:15:27.355Z,23.79
2023-03-23T08:19:27.414Z,23.78
2023-03-23T08:23:27.510Z,23.78
2023-03-23T08:27:27.533Z,23.76
2023-03-23T08:31:27.577Z,23.76
2023-03-23T08:35:28.007Z,23.76
2023-03-23T08:39:27.777Z,23.76
2023-03-23T08:43:28.000Z,23.80
2023-03-23T08:47:28.011Z,23.98
2023-03-23T08:51:28.055Z,24.15
2023-03-23T08:55:27.881Z,24.22
2023-03-23T08:59:27.981Z,24.33
2023-03-23T09:03:28.616Z,24.43
2023-03-23T09:07:28.492Z,24.52
2023-03-23T09:11:28.440Z,24.57
2023-03-23T09:15:34.115Z,24.62
2023-03-23T09:19:29.528Z,24.66
2023-03-23T09:23:28.481Z,24.70
2023-03-23T09:27:28.417Z,24.78
2023-03-23T09:31:28.420Z,24.83
2023-03-23T09:35:28.338Z,24.88
2023-03-23T09:39:28.542Z,24.83
2023-03-23T09:43:29.005Z,24.73
2023-03-23T09:47:28.791Z,24.70
2023-03-23T09:51:29.018Z,24.60
2023-03-23T09:55:29.581Z,23.78
2023-03-23T09:59:29.118Z,24.06
2023-03-23T10:03:29.525Z,24.32
2023-03-23T10:07:29.297Z,24.50
2023-03-23T10:11:29.288Z,24.62
2023-03-23T10:15:29.261Z,24.77
2023-03-23T10:19:29.218Z,24.87
2023-03-23T10:23:29.553Z,24.92
2023-03-23T10:27:29.143Z,24.99
2023-03-23T10:31:29.094Z,25.05
2023-03-23T10:35:30.765Z,25.10
2023-03-23T10:39:29.052Z,25.16
2023-03-23T10:43:29.105Z,25.25
2023-03-23T10:47:29.540Z,25.26
2023-03-23T10:51:29.541Z,25.14
2023-03-23T10:55:29.560Z,25.00
2023-03-23T10:59:29.459Z,24.89
2023-03-23T11:03:29.594Z,24.79
2023-03-23T11:07:29.796Z,24.77
2023-03-23T11:11:29.945Z,24.64
2023-03-23T11:15:30.552Z,24.59
2023-03-23T11:19:30.129Z,24.49
2023-03-23T11:23:30.554Z,24.35
2023-03-23T11:27:30.180Z,24.31
2023-03-23T11:31:30.038Z,24.05
2023-03-23T11:35:30.032Z,23.84
2023-03-23T11:39:29.966Z,23.32
2023-03-23T11:43:30.924Z,23.60
2023-03-23T11:47:30.096Z,23.95
2023-03-23T11:51:29.890Z,24.21
2023-03-23T11:55:31.201Z,24.46
2023-03-23T11:59:29.794Z,24.63
2023-03-23T12:03:29.759Z,24.78
2023-03-23T12:07:30.067Z,24.89
2023-03-23T12:11:29.668Z,24.98
2023-03-23T12:15:29.627Z,25.04
2023-03-23T12:19:29.683Z,25.06
2023-03-23T12:23:30.099Z,25.14
2023-03-23T12:27:29.809Z,25.20
2023-03-23T12:31:29.812Z,25.26
2023-03-23T12:35:30.067Z,25.28
2023-03-23T12:39:30.065Z,25.20
2023-03-23T12:43:29.861Z,25.12
2023-03-23T12:47:30.082Z,25.05
2023-03-23T12:51:29.986Z,25.01
2023-03-23T12:55:30.102Z,24.97
2023-03-23T12:59:30.212Z,24.96
2023-03-23T13:03:30.288Z,24.98
2023-03-23T13:07:30.339Z,24.95
2023-03-23T13:11:30.616Z,24.96
2023-03-23T13:15:30.538Z,25.02
2023-03-23T13:19:30.595Z,25.10
2023-03-23T13:23:31.108Z,25.20
2023-03-23T13:27:31.082Z,25.30
2023-03-23T13:31:30.617Z,25.37
2023-03-23T13:35:31.106Z,25.44
2023-03-23T13:39:30.691Z,25.48
2023-03-23T13:43:30.792Z,25.54
2023-03-23T13:47:31.018Z,25.57
2023-03-23T13:51:30.975Z,25.62
2023-03-23T13:55:30.933Z,25.65
2023-03-23T13:59:30.899Z,25.65
2023-03-23T14:03:30.888Z,25.60
2023-03-23T14:07:30.820Z,25.54
2023-03-23T14:11:30.778Z,25.48
2023-03-23T14:15:30.842Z,25.40
2023-03-23T14:19:31.140Z,25.33
2023-03-23T14:23:30.676Z,25.28
2023-03-23T14:27:30.647Z,25.26
2023-03-23T14:31:30.593Z,25.20
2023-03-23T14:35:30.552Z,25.18
2023-03-23T14:39:30.525Z,25.16
2023-03-23T14:43:30.492Z,25.16
2023-03-23T14:47:30.477Z,25.15
2023-03-23T14:51:30.432Z,25.14
2023-03-23T14:55:30.390Z,25.13
2023-03-23T14:59:30.630Z,25.17
2023-03-23T15:03:30.301Z,25.18
2023-03-23T15:07:30.645Z,25.16
2023-03-23T15:11:30.634Z,25.18
2023-03-23T15:15:30.186Z,25.16
2023-03-23T15:19:30.154Z,25.12
2023-03-23T15:23:30.123Z,25.07
2023-03-23T15:27:30.093Z,25.05
2023-03-23T15:31:30.159Z,25.09
2023-03-23T15:35:30.224Z,25.09
2023-03-23T15:39:30.251Z,25.12
2023-03-23T15:43:30.316Z,25.16
2023-03-23T15:47:30.319Z,25.16
2023-03-23T15:51:30.324Z,25.14
2023-03-23T15:55:30.391Z,25.11
2023-03-23T15:59:30.454Z,25.05
2023-03-23T16:03:30.525Z,25.02
2023-03-23T16:07:30.646Z,24.99
2023-03-23T16:11:30.737Z,24.95
2023-03-23T16:15:30.857Z,24.93
2023-03-23T16:19:30.968Z,24.91
2023-03-23T16:23:31.210Z,24.88
2023-03-23T16:27:31.228Z,24.86
2023-03-23T16:31:31.374Z,24.84
2023-03-23T16:35:31.555Z,24.81
2023-03-23T16:39:31.701Z,24.79
2023-03-23T16:43:31.840Z,24.75
2023-03-23T16:47:32.114Z,24.73
2023-03-23T16:51:32.207Z,24.70
2023-03-23T16:55:32.460Z,24.67
2023-03-23T16:59:32.619Z,24.65
2023-03-23T17:03:32.910Z,24.62
2023-03-23T17:07:33.190Z,24.60
2023-03-23T17:11:32.778Z,24.57
2023-03-23T17:15:32.746Z,24.54
2023-03-23T17:19:32.698Z,24.52
2023-03-23T17:23:32.679Z,24.50
2023-03-23T17:27:32.630Z,24.47
2023-03-23T17:31:32.656Z,24.45
2023-03-23T17:35:32.572Z,24.44
2023-03-23T17:39:32.686Z,24.42
2023-03-23T17:43:33.665Z,24.41
2023-03-23T17:47:32.659Z,24.40
2023-03-23T17:51:32.725Z,24.38
2023-03-23T17:55:32.906Z,24.36
2023-03-23T17:59:33.116Z,24.33
2023-03-23T18:03:33.249Z,24.33
2023-03-23T18:07:33.341Z,24.32
2023-03-23T18:11:33.481Z,24.31
2023-03-23T18:15:33.629Z,24.29
2023-03-23T18:19:33.628Z,24.28
2023-03-23T18:23:33.619Z,24.27
2023-03-23T18:27:33.775Z,24.25
2023-03-23T18:31:33.684Z,24.24
2023-03-23T18:35:33.635Z,24.23
2023-03-23T18:39:33.637Z,24.22
2023-03-23T18:43:33.642Z,24.20
2023-03-23T18:47:33.652Z,24.20
2023-03-23T18:51:33.592Z,24.18
2023-03-23T18:55:33.583Z,24.17
2023-03-23T18:59:33.525Z,24.16
2023-03-23T19:03:33.558Z,24.15
2023-03-23T19:07:33.490Z,24.14
2023-03-23T19:11:33.510Z,24.12
2023-03-23T19:15:33.535Z,24.12
2023-03-23T19:19:34.185Z,24.11
2023-03-23T19:23:33.461Z,24.10
2023-03-23T19:27:33.420Z,24.09
2023-03-23T19:31:33.818Z,24.09
2023-03-23T19:35:33.451Z,24.08
2023-03-23T19:39:33.424Z,24.07
2023-03-23T19:43:33.727Z,24.06
2023-03-23T19:47:33.512Z,24.05
2023-03-23T19:51:33.437Z,24.05
2023-03-23T19:55:33.496Z,24.04
2023-03-23T19:59:33.651Z,24.03
2023-03-23T20:03:33.553Z,24.01
2023-03-23T20:07:33.511Z,24.01
2023-03-23T20:11:34.299Z,23.99
2023-03-23T20:15:33.477Z,23.99
2023-03-23T20:19:33.557Z,23.98
2023-03-23T20:23:33.541Z,23.98
2023-03-23T20:27:33.480Z,23.96
2023-03-23T20:31:36.514Z,23.95
2023-03-23T20:35:33.409Z,23.93
2023-03-23T20:39:33.423Z,23.91
2023-03-23T20:43:33.394Z,23.90
2023-03-23T20:47:33.319Z,23.89
2023-03-23T20:51:33.289Z,23.88
2023-03-23T20:55:33.274Z,23.87
2023-03-23T20:59:33.244Z,23.86
2023-03-23T21:03:33.199Z,23.85
2023-03-23T21:07:33.156Z,23.82
2023-03-23T21:11:33.135Z,23.82
2023-03-23T21:15:33.085Z,23.81
2023-03-23T21:19:33.035Z,23.80
2023-03-23T21:23:32.993Z,23.79
2023-03-23T21:27:33.050Z,23.78
2023-03-23T21:31:32.926Z,23.77
2023-03-23T21:35:32.928Z,23.77
2023-03-23T21:39:32.848Z,23.76
2023-03-23T21:43:32.832Z,23.75
2023-03-23T21:47:32.805Z,23.74
2023-03-23T21:51:32.760Z,23.73
2023-03-23T21:55:32.701Z,23.73
2023-03-23T21:59:32.696Z,23.72
2023-03-23T22:03:32.658Z,23.72
2023-03-23T22:07:32.641Z,23.71
2023-03-23T22:11:32.602Z,23.69
2023-03-23T22:15:32.529Z,23.69
2023-03-23T22:19:32.496Z,23.68
2023-03-23T22:23:32.471Z,23.68
2023-03-23T22:27:32.455Z,23.68
2023-03-23T22:31:32.436Z,23.67
2023-03-23T22:35:32.369Z,23.66
2023-03-23T22:39:32.334Z,23.66
2023-03-23T22:43:32.308Z,23.64
2023-03-23T22:47:32.278Z,23.64
2023-03-23T22:51:32.231Z,23.63
2023-03-23T22:55:32.190Z,23.62
2023-03-23T22:59:32.169Z,23.62
2023-03-23T23:03:32.219Z,23.62
2023-03-23T23:07:32.229Z,23.61
2023-03-23T23:11:32.346Z,23.60
2023-03-23T23:15:32.435Z,23.60
2023-03-23T23:19:32.543Z,23.58
2023-03-23T23:23:32.561Z,23.58
2023-03-23T23:27:32.621Z,23.58
2023-03-23T23:31:32.690Z,23.58
2023-03-23T23:35:32.774Z,23.56
2023-03-23T23:39:32.852Z,23.56
2023-03-23T23:43:32.927Z,23.56
2023-03-23T23:47:33.087Z,23.55
2023-03-23T23:51:33.143Z,23.55
2023-03-23T23:55:33.191Z,23.54
2023-03-23T23:59:33.298Z,23.53
